Time;durP1;ratioP1;P1;durP2;ratioP2;P2;SDS_P1;SDS_P2;PMS_P1;PMS_P2;Temp;Humidity;BMP_temperature;BMP_pressure;BME280_temperature;BME280_humidity;BME280_pressure;Samples;Min_cycle;Max_cycle;Signal;HPM_P1;HPM_P2
2022/01/05 00:00:20;;;;;;;23.05;15.52;;;10.50;99.90;;;;;;5055537;28;20650;-72
2022/01/05 00:02:48;;;;;;;25.35;15.85;;;10.50;99.90;;;;;;5055018;28;20221;-70
2022/01/05 00:05:15;;;;;;;20.35;13.95;;;10.40;99.90;;;;;;5055441;28;20224;-70
2022/01/05 00:07:43;;;;;;;22.17;14.88;;;10.40;99.90;;;;;;5055388;28;20663;-70
2022/01/05 00:10:11;;;;;;;23.38;17.35;;;10.30;99.90;;;;;;5072292;28;20184;-72
2022/01/05 00:12:38;;;;;;;26.20;18.13;;;10.20;99.90;;;;;;5055275;28;20262;-71
2022/01/05 00:15:06;;;;;;;20.20;15.57;;;10.20;99.90;;;;;;5055441;28;20185;-72
2022/01/05 00:17:38;;;;;;;23.77;16.10;;;10.20;99.90;;;;;;5055240;28;20572;-72
2022/01/05 00:20:06;;;;;;;22.55;16.48;;;10.10;99.90;;;;;;5055489;28;20181;-70
2022/01/05 00:22:33;;;;;;;24.20;16.83;;;10.10;99.90;;;;;;5072254;28;20722;-70
2022/01/05 00:25:05;;;;;;;27.30;17.98;;;10.10;99.90;;;;;;5055333;28;20189;-72
2022/01/05 00:27:37;;;;;;;19.55;15.70;;;10.10;99.90;;;;;;5056515;28;20230;-72
2022/01/05 00:30:11;;;;;;;28.33;18.50;;;10.10;99.90;;;;;;5054968;28;20252;-69
2022/01/05 00:32:38;;;;;;;27.80;18.83;;;10.00;99.90;;;;;;5055021;28;20604;-69
2022/01/05 00:35:06;;;;;;;22.73;16.50;;;10.00;99.90;;;;;;5055134;28;20467;-72
2022/01/05 00:37:32;;;;;;;23.42;16.48;;;10.00;99.90;;;;;;5054606;28;20335;-72
2022/01/05 00:39:59;;;;;;;21.67;17.88;;;9.90;99.90;;;;;;5071904;28;20274;-72
2022/01/05 00:42:27;;;;;;;27.40;18.15;;;9.90;99.90;;;;;;5054912;28;20201;-69
2022/01/05 00:44:56;;;;;;;28.10;17.33;;;9.90;99.90;;;;;;5055178;28;20181;-70
2022/01/05 00:47:28;;;;;;;24.60;17.83;;;9.90;99.90;;;;;;5071415;28;20556;-72
2022/01/05 00:49:56;;;;;;;23.17;17.35;;;9.80;99.90;;;;;;5055174;28;20643;-69
2022/01/05 00:52:23;;;;;;;22.75;16.25;;;9.80;99.90;;;;;;5054999;28;20280;-70
2022/01/05 00:54:51;;;;;;;22.30;15.32;;;9.80;99.90;;;;;;5054751;28;20804;-70
2022/01/05 00:57:19;;;;;;;24.17;16.58;;;9.80;99.90;;;;;;5054520;28;20240;-72
2022/01/05 00:59:59;;;;;;;20.02;15.07;;;9.80;99.90;;;;;;5054648;28;20177;-72
2022/01/05 01:02:25;;;;;;;19.45;12.45;;;9.80;99.90;;;;;;5054958;28;20558;-72
2022/01/05 01:04:52;;;;;;;19.63;13.45;;;9.80;99.90;;;;;;5054703;28;20185;-70
2022/01/05 01:07:21;;;;;;;20.95;15.25;;;9.80;99.90;;;;;;5054432;28;20202;-69
2022/01/05 01:09:49;;;;;;;20.70;15.85;;;9.80;99.90;;;;;;5054446;28;20208;-70
2022/01/05 01:12:24;;;;;;;27.10;14.90;;;9.90;99.90;;;;;;5054487;28;20666;-72
2022/01/05 01:14:51;;;;;;;21.30;14.48;;;9.90;99.90;;;;;;5054117;28;20311;-69
2022/01/05 01:17:28;;;;;;;23.15;14.18;;;9.90;99.90;;;;;;5054414;28;20193;-70
2022/01/05 01:20:00;;;;;;;22.67;15.40;;;9.90;99.90;;;;;;5071199;28;20193;-72
2022/01/05 01:22:31;;;;;;;21.58;15.05;;;10.00;99.90;;;;;;5055632;28;20190;-70
2022/01/05 01:24:58;;;;;;;17.70;14.27;;;10.00;99.90;;;;;;5054384;28;20226;-72
2022/01/05 01:27:27;;;;;;;20.58;14.00;;;10.00;99.90;;;;;;5055345;28;20185;-72
2022/01/05 01:30:02;;;;;;;17.40;13.10;;;10.00;99.90;;;;;;5053908;28;20306;-72
2022/01/05 01:32:28;;;;;;;19.17;13.45;;;10.00;99.90;;;;;;5055127;28;20189;-71
2022/01/05 01:34:55;;;;;;;20.23;13.40;;;10.00;99.90;;;;;;5053691;28;20806;-69
2022/01/05 01:37:22;;;;;;;22.63;14.47;;;10.00;99.90;;;;;;5070455;28;20206;-70
2022/01/05 01:39:51;;;;;;;20.88;13.35;;;10.00;99.90;;;;;;5053950;28;20645;-70
2022/01/05 01:42:18;;;;;;;22.05;14.82;;;10.00;99.90;;;;;;5053802;28;20623;-72
2022/01/05 01:44:45;;;;;;;19.65;15.10;;;10.00;99.90;;;;;;5053783;28;20565;-70
2022/01/05 01:47:11;;;;;;;18.92;13.50;;;10.00;99.90;;;;;;5054906;28;20170;-72
2022/01/05 01:49:41;;;;;;;19.13;13.43;;;10.00;99.90;;;;;;5053568;28;20268;-72
2022/01/05 01:52:15;;;;;;;18.30;13.80;;;10.00;99.90;;;;;;5053518;28;20269;-70
2022/01/05 01:54:41;;;;;;;20.23;14.38;;;9.90;99.90;;;;;;5054805;28;20213;-69
2022/01/05 01:57:08;;;;;;;20.98;14.65;;;9.90;99.90;;;;;;5052915;28;20186;-71
2022/01/05 01:59:36;;;;;;;17.65;13.95;;;9.90;99.90;;;;;;5053437;28;20182;-72
2022/01/05 02:02:04;;;;;;;20.02;14.27;;;9.80;99.90;;;;;;5070073;28;20610;-70
2022/01/05 02:04:41;;;;;;;18.98;13.57;;;9.80;99.90;;;;;;5069974;28;20182;-73
2022/01/05 02:07:08;;;;;;;19.15;14.25;;;9.80;99.90;;;;;;5053218;28;20185;-70
2022/01/05 02:09:35;;;;;;;22.38;15.30;;;9.70;99.90;;;;;;5052711;28;20655;-72
2022/01/05 02:12:04;;;;;;;19.70;14.20;;;9.70;99.90;;;;;;5053322;28;20177;-70
2022/01/05 02:14:34;;;;;;;18.27;13.27;;;9.60;99.90;;;;;;5053162;28;20221;-70
2022/01/05 02:17:09;;;;;;;18.30;13.45;;;9.60;99.90;;;;;;5069723;28;20181;-72
2022/01/05 02:19:37;;;;;;;20.25;13.55;;;9.60;99.90;;;;;;5053174;28;20208;-72
2022/01/05 02:22:07;;;;;;;16.80;13.82;;;9.50;99.90;;;;;;5052953;28;20181;-72
2022/01/05 02:24:34;;;;;;;19.70;15.02;;;9.50;99.90;;;;;;5052959;28;20177;-72
2022/01/05 02:27:02;;;;;;;21.08;15.35;;;9.40;99.90;;;;;;5052941;28;20178;-70
2022/01/05 02:29:29;;;;;;;18.17;13.50;;;9.40;99.90;;;;;;5052996;28;20627;-70
2022/01/05 02:32:00;;;;;;;22.70;15.15;;;9.30;99.90;;;;;;5052581;28;20322;-72
2022/01/05 02:34:32;;;;;;;22.02;13.75;;;9.30;99.90;;;;;;5069422;28;20610;-71
2022/01/05 02:37:08;;;;;;;19.23;14.02;;;9.30;99.90;;;;;;5052965;28;20275;-72
2022/01/05 02:39:38;;;;;;;18.80;14.15;;;9.30;99.90;;;;;;5052531;28;20196;-72
2022/01/05 02:42:05;;;;;;;17.58;13.02;;;9.30;99.90;;;;;;5052691;28;20185;-70
2022/01/05 02:44:31;;;;;;;18.65;13.85;;;9.30;99.90;;;;;;5052790;28;20280;-70
2022/01/05 02:47:00;;;;;;;18.90;12.45;;;9.30;99.90;;;;;;5052673;28;20182;-70
2022/01/05 02:49:28;;;;;;;17.55;13.77;;;9.30;99.90;;;;;;5052692;28;20181;-70
2022/01/05 02:51:56;;;;;;;15.93;13.10;;;9.40;99.90;;;;;;5069429;28;20587;-72
2022/01/05 02:54:25;;;;;;;16.92;11.88;;;9.40;99.90;;;;;;5052701;28;20221;-69
2022/01/05 02:56:53;;;;;;;15.70;11.38;;;9.50;99.90;;;;;;5053801;28;20604;-72
2022/01/05 02:59:19;;;;;;;17.25;11.77;;;9.50;99.90;;;;;;5052687;28;20235;-72
2022/01/05 03:01:47;;;;;;;13.82;9.00;;;9.60;99.90;;;;;;5052708;28;20174;-70
2022/01/05 03:04:28;;;;;;;13.40;9.90;;;9.70;99.90;;;;;;5052562;28;20671;-72
2022/01/05 03:06:55;;;;;;;13.85;10.75;;;9.80;99.90;;;;;;5052651;28;20653;-70
2022/01/05 03:09:26;;;;;;;13.55;9.88;;;9.80;99.90;;;;;;5052483;28;20193;-72
2022/01/05 03:11:53;;;;;;;13.13;10.32;;;9.90;99.90;;;;;;5052678;28;20571;-70
2022/01/05 03:14:21;;;;;;;16.15;11.57;;;9.90;99.90;;;;;;5052175;28;20316;-70
2022/01/05 03:16:48;;;;;;;13.57;10.15;;;10.00;99.90;;;;;;5052416;28;20186;-72
2022/01/05 03:19:17;;;;;;;12.75;9.63;;;10.10;99.90;;;;;;5052321;28;20732;-70
2022/01/05 03:21:45;;;;;;;17.77;10.07;;;10.10;99.90;;;;;;5071291;28;20177;-69
2022/01/05 03:24:18;;;;;;;12.38;9.25;;;10.20;99.90;;;;;;5057502;28;20205;-72
2022/01/05 03:26:51;;;;;;;13.50;9.55;;;10.20;99.90;;;;;;5056497;28;20173;-72
2022/01/05 03:29:21;;;;;;;15.60;10.05;;;10.30;99.90;;;;;;5056371;28;20214;-72
2022/01/05 03:31:47;;;;;;;14.10;9.88;;;10.30;99.90;;;;;;5056345;28;20225;-72
2022/01/05 03:34:18;;;;;;;14.83;10.07;;;10.40;99.90;;;;;;5056025;28;20236;-72
2022/01/05 03:36:51;;;;;;;13.60;9.95;;;10.40;99.90;;;;;;5056135;28;20433;-72
2022/01/05 03:39:21;;;;;;;10.38;8.27;;;10.40;99.90;;;;;;5072675;28;20205;-72
2022/01/05 03:41:48;;;;;;;12.10;9.45;;;10.40;99.90;;;;;;5055996;28;20177;-70
2022/01/05 03:44:16;;;;;;;14.88;10.75;;;10.40;99.90;;;;;;5056007;28;20561;-70
2022/01/05 03:46:45;;;;;;;14.68;9.70;;;10.40;99.90;;;;;;5057572;28;20169;-73
2022/01/05 03:49:15;;;;;;;13.35;10.45;;;10.40;99.90;;;;;;5056137;28;20201;-70
2022/01/05 03:51:45;;;;;;;11.73;9.60;;;10.40;99.90;;;;;;5072712;28;20181;-72
2022/01/05 03:54:16;;;;;;;15.60;10.45;;;10.40;99.90;;;;;;5055762;28;20598;-72
2022/01/05 03:56:43;;;;;;;14.10;10.32;;;10.40;99.90;;;;;;5055898;28;20623;-70
2022/01/05 03:59:09;;;;;;;14.60;10.32;;;10.30;99.90;;;;;;5055764;28;20221;-70
2022/01/05 04:01:37;;;;;;;15.23;10.93;;;10.30;99.90;;;;;;5055521;28;20228;-73
2022/01/05 04:04:06;;;;;;;14.23;10.55;;;10.30;99.90;;;;;;5072405;28;20275;-70
2022/01/05 04:06:33;;;;;;;16.25;10.48;;;10.30;99.90;;;;;;5055872;28;20178;-70
2022/01/05 04:09:00;;;;;;;13.63;11.30;;;10.20;99.90;;;;;;5055409;28;20206;-71
2022/01/05 04:11:27;;;;;;;14.80;10.80;;;10.20;99.90;;;;;;5055547;28;20226;-71
2022/01/05 04:13:59;;;;;;;14.23;11.00;;;10.20;99.90;;;;;;5055358;28;20260;-72
2022/01/05 04:16:28;;;;;;;13.40;10.27;;;10.20;99.90;;;;;;5072896;28;20643;-72
2022/01/05 04:18:59;;;;;;;15.95;10.43;;;10.20;99.90;;;;;;5055238;28;20233;-72
2022/01/05 04:21:30;;;;;;;14.95;11.45;;;10.10;99.90;;;;;;5055163;28;20232;-72
2022/01/05 04:24:04;;;;;;;16.67;10.40;;;10.10;99.90;;;;;;5055277;28;20201;-71
2022/01/05 04:26:32;;;;;;;15.65;11.88;;;10.10;99.90;;;;;;5055054;28;20178;-72
2022/01/05 04:28:59;;;;;;;15.55;11.07;;;10.10;99.90;;;;;;5055155;28;20213;-72
2022/01/05 04:31:34;;;;;;;13.65;10.60;;;10.10;99.90;;;;;;5054394;28;20236;-72
2022/01/05 04:34:02;;;;;;;16.05;11.00;;;10.00;99.90;;;;;;5055370;28;20686;-69
2022/01/05 04:36:30;;;;;;;16.83;11.50;;;10.00;99.90;;;;;;5055009;28;20217;-71
2022/01/05 04:39:01;;;;;;;19.33;13.10;;;10.00;99.90;;;;;;5054979;28;20264;-72
2022/01/05 04:41:29;;;;;;;15.23;11.02;;;9.90;99.90;;;;;;5055455;28;20339;-70
2022/01/05 04:43:57;;;;;;;14.07;10.73;;;9.90;99.90;;;;;;5055003;28;20233;-72
2022/01/05 04:46:25;;;;;;;14.27;11.10;;;9.90;99.90;;;;;;5056182;28;20622;-70
2022/01/05 04:48:59;;;;;;;18.63;12.00;;;9.90;99.90;;;;;;5054801;28;20201;-70
2022/01/05 04:51:28;;;;;;;14.82;9.73;;;9.90;99.90;;;;;;5054771;28;20204;-72
2022/01/05 04:53:55;;;;;;;21.00;10.90;;;9.90;99.90;;;;;;5054900;28;20225;-72
2022/01/05 04:56:23;;;;;;;17.40;11.65;;;9.80;99.90;;;;;;5054769;28;20181;-72
2022/01/05 04:58:56;;;;;;;18.38;10.82;;;9.80;99.90;;;;;;5054485;28;20255;-71
2022/01/05 05:01:28;;;;;;;16.77;10.80;;;9.80;99.90;;;;;;5055788;28;20196;-70
2022/01/05 05:04:00;;;;;;;12.25;8.60;;;9.80;99.90;;;;;;5053781;28;20198;-70
2022/01/05 05:06:31;;;;;;;11.80;9.95;;;9.70;99.90;;;;;;5070625;28;20275;-70
2022/01/05 05:09:02;;;;;;;14.95;10.05;;;9.70;99.90;;;;;;5054213;28;20209;-70
2022/01/05 05:11:30;;;;;;;16.25;11.50;;;9.70;99.90;;;;;;5054881;28;20236;-72
2022/01/05 05:14:02;;;;;;;13.00;9.55;;;9.70;99.90;;;;;;5054227;28;20736;-72
2022/01/05 05:16:32;;;;;;;14.82;10.77;;;9.70;99.90;;;;;;5054618;28;20177;-70
2022/01/05 05:19:01;;;;;;;15.90;10.90;;;9.70;99.90;;;;;;5054310;28;20620;-71
2022/01/05 05:21:31;;;;;;;16.20;10.50;;;9.80;99.90;;;;;;5071533;28;20253;-71
2022/01/05 05:23:57;;;;;;;13.23;9.80;;;9.80;99.90;;;;;;5070930;28;20236;-72
2022/01/05 05:26:28;;;;;;;13.80;9.27;;;9.80;99.90;;;;;;5054388;28;20182;-72
2022/01/05 05:29:04;;;;;;;12.70;10.02;;;9.80;99.90;;;;;;5054164;28;20206;-72
2022/01/05 05:31:33;;;;;;;14.05;9.77;;;9.80;99.90;;;;;;5043688;28;20759;-72
2022/01/05 05:34:00;;;;;;;13.05;9.70;;;9.80;99.90;;;;;;5036325;28;20223;-72
2022/01/05 05:36:27;;;;;;;10.45;8.45;;;9.90;99.90;;;;;;5035468;28;20181;-71
2022/01/05 05:38:57;;;;;;;11.10;8.88;;;9.90;99.90;;;;;;5038473;28;20267;-70
2022/01/05 05:41:26;;;;;;;12.60;8.73;;;9.90;99.90;;;;;;5066276;28;20192;-71
2022/01/05 05:43:53;;;;;;;12.85;9.88;;;9.90;99.90;;;;;;5073977;28;20242;-72
2022/01/05 05:46:22;;;;;;;15.32;9.85;;;9.90;99.90;;;;;;5065300;28;20204;-72
2022/01/05 05:48:48;;;;;;;13.05;9.90;;;9.90;99.90;;;;;;5052714;28;20206;-72
2022/01/05 05:51:15;;;;;;;12.43;10.60;;;9.90;99.90;;;;;;5051701;28;20201;-71
2022/01/05 05:53:42;;;;;;;14.07;11.18;;;9.90;99.90;;;;;;5036767;28;20245;-71
2022/01/05 05:56:11;;;;;;;14.07;10.45;;;9.90;99.90;;;;;;5051970;28;20185;-72
2022/01/05 05:58:41;;;;;;;11.23;9.32;;;9.90;99.90;;;;;;5067249;28;20694;-72
2022/01/05 06:01:09;;;;;;;24.02;18.45;;;9.80;99.90;;;;;;5035322;28;20188;-70
2022/01/05 06:03:36;;;;;;;19.45;15.07;;;9.80;99.90;;;;;;5052054;28;20201;-71
2022/01/05 06:06:04;;;;;;;26.77;19.48;;;9.80;99.90;;;;;;5054278;28;20692;-71
2022/01/05 06:08:30;;;;;;;21.27;14.75;;;9.90;99.90;;;;;;5053275;28;20201;-70
2022/01/05 06:11:02;;;;;;;11.57;9.77;;;9.90;99.90;;;;;;5040183;28;20647;-71
2022/01/05 06:13:29;;;;;;;12.60;10.15;;;9.80;99.90;;;;;;5056411;28;20217;-73
2022/01/05 06:15:59;;;;;;;14.02;10.07;;;9.90;99.90;;;;;;5068958;28;20198;-72
2022/01/05 06:18:27;;;;;;;19.73;13.45;;;9.90;99.90;;;;;;5042640;28;20244;-71
2022/01/05 06:20:57;;;;;;;22.60;17.25;;;9.90;99.90;;;;;;5061714;28;20236;-71
2022/01/05 06:23:25;;;;;;;15.57;12.55;;;9.90;99.90;;;;;;5051457;28;20210;-71
2022/01/05 06:25:52;;;;;;;43.25;32.20;;;9.90;99.90;;;;;;5052133;28;20631;-71
2022/01/05 06:28:24;;;;;;;12.07;9.57;;;9.90;99.90;;;;;;5051258;28;20209;-70
2022/01/05 06:31:09;;;;;;;19.95;14.65;;;9.90;99.90;;;;;;5068309;28;20229;-72
2022/01/05 06:33:35;;;;;;;10.88;7.38;;;10.00;99.90;;;;;;5024821;28;20202;-70
2022/01/05 06:36:08;;;;;;;14.43;8.88;;;10.00;99.90;;;;;;5033791;28;20186;-73
2022/01/05 06:38:39;;;;;;;10.60;8.18;;;10.10;99.90;;;;;;5041541;28;20728;-72
2022/01/05 06:41:14;;;;;;;13.18;11.07;;;10.20;99.90;;;;;;5048676;28;20549;-73
2022/01/05 06:49:42;;;;;;;13.45;11.18;;;10.50;99.90;;;;;;5199440;22;21180;-73
2022/01/05 06:52:11;;;;;;;16.13;9.52;;;10.60;99.90;;;;;;5054358;28;20519;-71
2022/01/05 06:54:44;;;;;;;10.35;8.38;;;10.60;99.90;;;;;;5071375;28;20216;-72
2022/01/05 06:57:11;;;;;;;18.33;13.52;;;10.60;99.90;;;;;;5085779;28;20180;-73
2022/01/05 06:59:39;;;;;;;15.60;10.55;;;10.60;99.90;;;;;;5062759;28;20185;-71
2022/01/05 07:02:16;;;;;;;20.67;13.70;;;10.50;99.90;;;;;;5062630;28;20183;-72
2022/01/05 07:04:49;;;;;;;15.50;12.80;;;10.50;99.90;;;;;;5053455;28;20181;-71
2022/01/05 07:07:51;;;;;;;12.93;9.55;;;10.50;99.90;;;;;;5080547;28;20231;-71
2022/01/05 07:10:29;;;;;;;17.55;13.85;;;10.50;99.90;;;;;;5071823;28;20207;-70
2022/01/05 07:12:57;;;;;;;11.90;9.48;;;10.60;99.90;;;;;;5080936;28;20246;-73
2022/01/05 07:15:25;;;;;;;14.65;11.00;;;10.60;99.90;;;;;;5080177;28;20279;-73
2022/01/05 07:17:57;;;;;;;13.20;11.10;;;10.60;99.90;;;;;;5071822;28;20204;-71
2022/01/05 07:20:28;;;;;;;13.55;9.85;;;10.60;99.90;;;;;;5072191;28;20815;-72
2022/01/05 07:22:59;;;;;;;13.30;10.27;;;10.60;99.90;;;;;;5067563;28;20607;-70
2022/01/05 07:25:30;;;;;;;15.38;10.93;;;10.60;99.90;;;;;;5071311;28;20641;-70
2022/01/05 07:27:57;;;;;;;11.98;8.13;;;10.60;99.90;;;;;;5068877;28;20211;-70
2022/01/05 07:30:30;;;;;;;11.90;8.75;;;10.60;99.90;;;;;;5071150;28;20195;-73
2022/01/05 07:32:57;;;;;;;11.77;8.18;;;10.60;99.90;;;;;;5067144;28;20672;-71
2022/01/05 07:35:25;;;;;;;13.30;9.88;;;10.60;99.90;;;;;;5070305;28;20264;-73
2022/01/05 07:37:55;;;;;;;12.18;9.70;;;10.70;99.90;;;;;;5064201;28;20205;-73
2022/01/05 07:40:28;;;;;;;12.77;8.75;;;10.70;99.90;;;;;;5069000;28;20295;-73
2022/01/05 07:42:55;;;;;;;11.65;9.38;;;10.70;99.90;;;;;;5074091;28;20205;-70
2022/01/05 07:45:22;;;;;;;11.23;8.80;;;10.80;99.90;;;;;;5061119;28;20669;-73
2022/01/05 07:47:50;;;;;;;11.07;9.23;;;10.80;99.90;;;;;;5065595;28;20282;-71
2022/01/05 07:50:19;;;;;;;14.15;9.57;;;10.80;99.90;;;;;;5065840;28;20203;-73
2022/01/05 07:52:49;;;;;;;10.80;8.40;;;10.80;99.90;;;;;;5060701;28;20219;-70
2022/01/05 07:55:19;;;;;;;10.50;9.02;;;10.90;99.90;;;;;;5061850;28;20224;-70
2022/01/05 07:57:50;;;;;;;11.95;9.45;;;10.90;99.90;;;;;;5083404;28;20212;-74
2022/01/05 08:00:17;;;;;;;13.98;9.55;;;10.90;99.90;;;;;;5066537;28;20184;-70
2022/01/05 08:02:51;;;;;;;11.38;9.40;;;11.00;99.90;;;;;;5065367;28;20216;-71
2022/01/05 08:05:22;;;;;;;10.05;8.60;;;11.00;99.90;;;;;;5067417;28;20196;-70
2022/01/05 08:07:49;;;;;;;13.82;9.25;;;11.00;99.90;;;;;;5083591;28;20215;-70
2022/01/05 08:10:20;;;;;;;11.27;8.75;;;11.10;99.90;;;;;;5063259;28;20527;-73
2022/01/05 08:12:56;;;;;;;12.45;9.48;;;11.10;99.90;;;;;;5057092;28;20249;-73
2022/01/05 08:15:40;;;;;;;12.52;8.75;;;11.20;99.90;;;;;;5055872;28;20298;-70
2022/01/05 08:18:18;;;;;;;11.75;9.60;;;11.10;99.90;;;;;;5067868;28;20294;-73
2022/01/05 08:20:46;;;;;;;10.68;8.70;;;11.20;99.90;;;;;;5060816;28;20177;-73
2022/01/05 08:23:29;;;;;;;13.82;9.23;;;11.20;99.90;;;;;;5058436;28;20209;-73
2022/01/05 08:25:59;;;;;;;13.20;9.57;;;11.30;99.90;;;;;;5067612;28;20180;-70
2022/01/05 08:28:26;;;;;;;11.68;9.45;;;11.30;99.90;;;;;;5061314;28;20204;-73
2022/01/05 08:30:54;;;;;;;11.82;9.20;;;11.30;99.90;;;;;;5062766;28;20266;-73
2022/01/05 08:33:20;;;;;;;9.30;7.80;;;11.40;99.90;;;;;;5060537;28;20376;-73
2022/01/05 08:35:49;;;;;;;14.45;11.48;;;11.40;99.90;;;;;;5064784;28;20173;-72
2022/01/05 08:38:16;;;;;;;10.95;9.63;;;11.40;99.90;;;;;;5074596;28;20208;-73
2022/01/05 08:40:49;;;;;;;10.60;8.95;;;11.40;99.90;;;;;;5071037;28;20181;-73
2022/01/05 08:43:32;;;;;;;11.48;8.07;;;11.40;99.90;;;;;;5056622;28;20255;-71
2022/01/05 08:46:31;;;;;;;11.43;8.45;;;11.50;99.90;;;;;;5063671;28;20181;-73
2022/01/05 08:49:33;;;;;;;12.07;8.55;;;11.50;99.90;;;;;;5073980;28;20701;-72
2022/01/05 08:52:00;;;;;;;11.95;10.10;;;11.50;99.90;;;;;;5061374;28;20180;-68
2022/01/05 08:54:27;;;;;;;13.15;11.40;;;11.60;99.90;;;;;;5055228;28;20636;-70
2022/01/05 08:56:57;;;;;;;15.07;10.77;;;11.60;99.90;;;;;;5064674;28;20185;-71
2022/01/05 08:59:22;;;;;;;22.58;16.38;;;11.60;99.90;;;;;;5062941;28;20188;-71
2022/01/05 09:01:52;;;;;;;13.27;9.83;;;11.70;99.90;;;;;;5077653;28;20204;-70
2022/01/05 09:04:19;;;;;;;13.88;9.88;;;11.70;99.90;;;;;;5064664;28;20177;-68
2022/01/05 09:06:48;;;;;;;12.05;8.60;;;11.80;99.90;;;;;;5070956;28;20335;-71
2022/01/05 09:09:18;;;;;;;16.80;9.85;;;11.80;99.90;;;;;;5059812;28;20219;-70
2022/01/05 09:11:46;;;;;;;12.30;9.85;;;11.80;99.90;;;;;;5079700;28;20177;-70
2022/01/05 09:14:21;;;;;;;12.65;9.02;;;11.90;99.90;;;;;;5065894;28;20219;-71
2022/01/05 09:16:49;;;;;;;9.73;6.97;;;11.90;99.90;;;;;;5068608;28;20287;-71
2022/01/05 09:19:18;;;;;;;17.70;10.50;;;12.00;99.90;;;;;;5052505;28;20218;-71
2022/01/05 09:21:49;;;;;;;11.40;8.00;;;12.00;99.90;;;;;;5065430;28;20199;-72
2022/01/05 09:24:32;;;;;;;13.23;9.40;;;12.00;99.90;;;;;;5090189;28;20214;-69
2022/01/05 09:27:12;;;;;;;13.65;8.35;;;12.10;99.90;;;;;;5087999;28;20212;-72
2022/01/05 09:29:44;;;;;;;11.27;9.25;;;12.10;99.90;;;;;;5061523;28;20670;-69
2022/01/05 09:32:10;;;;;;;13.50;10.13;;;12.20;99.90;;;;;;5069666;28;20180;-71
2022/01/05 09:34:42;;;;;;;12.77;9.15;;;12.20;99.90;;;;;;5066046;28;20208;-70
2022/01/05 09:42:30;;;;;;;12.50;8.07;;;12.50;99.90;;;;;;5080233;28;21080;-69
2022/01/05 09:45:00;;;;;;;10.43;9.00;;;12.60;99.90;;;;;;5077632;28;20504;-69
2022/01/05 09:47:51;;;;;;;17.50;11.05;;;12.60;99.90;;;;;;5066720;28;20818;-69
2022/01/05 09:50:29;;;;;;;12.55;10.40;;;12.70;99.90;;;;;;5046173;28;20253;-71
2022/01/05 09:53:00;;;;;;;14.97;8.90;;;12.80;99.90;;;;;;5051466;28;20193;-71
2022/01/05 09:55:26;;;;;;;15.80;10.80;;;12.80;99.90;;;;;;5042839;28;20435;-72
2022/01/05 09:57:52;;;;;;;17.37;11.77;;;12.90;99.90;;;;;;5038907;28;20759;-67
2022/01/05 10:00:31;;;;;;;16.00;11.53;;;12.90;99.90;;;;;;5046919;28;20457;-75
2022/01/05 10:03:07;;;;;;;13.83;10.13;;;12.90;99.90;;;;;;5041491;28;20470;-75
2022/01/05 10:05:40;;;;;;;14.43;9.53;;;13.00;99.90;;;;;;5044409;28;20416;-74
2022/01/05 10:08:20;;;;;;;12.37;9.20;;;13.00;99.90;;;;;;5044931;28;20449;-73
2022/01/05 10:10:58;;;;;;;10.90;9.30;;;13.10;99.90;;;;;;5048075;28;20413;-72
2022/01/05 10:17:18;;;;;;;14.27;9.60;;;13.20;99.90;;;;;;5064343;28;20833;-73
2022/01/05 10:20:39;;;;;;;12.70;10.30;;;13.30;99.90;;;;;;5037189;28;21134;-73
2022/01/05 10:23:53;;;;;;;11.70;9.37;;;13.30;99.90;;;;;;5045756;28;20461;-73
2022/01/05 10:26:47;;;;;;;12.10;9.43;;;13.30;99.90;;;;;;5048283;28;20400;-72
2022/01/05 10:29:27;;;;;;;13.70;10.47;;;13.30;99.90;;;;;;5040812;28;20677;-75
2022/01/05 10:32:32;;;;;;;13.37;9.90;;;13.40;99.90;;;;;;5063076;28;20416;-73
2022/01/05 10:35:38;;;;;;;11.93;9.80;;;13.40;99.90;;;;;;5046138;28;20489;-72
2022/01/05 10:38:12;;;;;;;14.17;10.20;;;13.40;99.90;;;;;;5060615;28;20470;-72
2022/01/05 10:40:44;;;;;;;12.83;9.50;;;13.40;99.90;;;;;;5046598;28;20509;-73
2022/01/05 10:43:14;;;;;;;10.57;8.83;;;13.40;99.90;;;;;;5043881;28;20537;-72
2022/01/05 10:45:51;;;;;;;10.83;9.33;;;13.50;99.90;;;;;;5035061;28;20435;-72
2022/01/05 10:51:59;;;;;;;9.70;8.03;;;13.50;99.90;;;;;;5076865;28;20414;-73
2022/01/05 10:54:47;;;;;;;11.53;8.60;;;13.70;99.90;;;;;;5027084;28;20495;-71
2022/01/05 10:57:18;;;;;;;12.13;8.30;;;13.80;99.90;;;;;;5007055;28;20969;-71
2022/01/05 10:59:50;;;;;;;9.27;8.20;;;13.90;99.90;;;;;;4981608;28;20448;-71
2022/01/05 11:02:27;;;;;;;10.70;7.90;;;14.10;99.90;;;;;;5001866;28;20424;-73
2022/01/05 11:05:29;;;;;;;12.27;9.00;;;14.30;99.90;;;;;;5004861;28;20432;-74
2022/01/05 11:08:10;;;;;;;17.20;13.50;;;14.40;99.90;;;;;;5008823;28;20476;-74
2022/01/05 11:10:40;;;;;;;20.47;13.90;;;14.50;99.90;;;;;;4971166;28;20465;-74
2022/01/05 11:13:30;;;;;;;16.50;10.90;;;14.60;99.90;;;;;;4982811;28;20474;-74
2022/01/05 11:16:00;;;;;;;14.47;11.43;;;14.70;99.90;;;;;;5008521;28;20842;-72
2022/01/05 11:19:02;;;;;;;16.80;13.20;;;14.80;99.90;;;;;;4991391;28;20531;-72
2022/01/05 11:21:33;;;;;;;9.50;7.57;;;14.90;99.90;;;;;;4980312;28;20440;-74
2022/01/05 11:24:00;;;;;;;8.90;7.07;;;14.90;99.90;;;;;;5010407;28;20768;-73
2022/01/05 11:26:27;;;;;;;10.13;8.50;;;15.00;99.90;;;;;;4992649;28;20520;-72
2022/01/05 11:28:55;;;;;;;11.20;8.23;;;15.00;99.90;;;;;;4984199;28;20455;-72
2022/01/05 11:31:22;;;;;;;16.70;12.10;;;15.00;99.90;;;;;;4993670;28;20452;-71
2022/01/05 11:33:53;;;;;;;16.03;11.43;;;15.10;99.90;;;;;;4991793;28;20900;-73
2022/01/05 11:36:21;;;;;;;15.23;11.40;;;15.10;99.90;;;;;;4993847;28;20444;-74
2022/01/05 11:38:50;;;;;;;11.83;7.70;;;15.20;99.90;;;;;;4994544;28;20452;-74
2022/01/05 11:41:25;;;;;;;10.77;7.73;;;15.20;99.90;;;;;;4993524;28;20536;-72
2022/01/05 11:43:52;;;;;;;14.27;8.07;;;15.20;99.90;;;;;;5009805;28;20832;-73
2022/01/05 11:46:20;;;;;;;11.90;7.77;;;15.20;99.90;;;;;;4992773;28;20440;-73
2022/01/05 11:49:12;;;;;;;12.43;9.73;;;15.10;99.90;;;;;;4984644;28;20433;-73
2022/01/05 11:51:56;;;;;;;18.83;11.83;;;15.10;99.90;;;;;;4987713;28;20496;-74
2022/01/05 11:54:31;;;;;;;9.63;8.20;;;15.10;99.90;;;;;;4994954;28;20578;-72
2022/01/05 11:57:06;;;;;;;13.70;10.30;;;15.00;99.90;;;;;;4993669;28;20439;-72
2022/01/05 11:59:40;;;;;;;10.87;7.77;;;15.00;99.90;;;;;;4989162;28;20428;-72
2022/01/05 12:02:14;;;;;;;12.97;11.10;;;15.00;99.90;;;;;;4990115;28;20439;-74
2022/01/05 12:04:56;;;;;;;15.00;10.60;;;14.90;99.90;;;;;;4998726;28;20503;-72
2022/01/05 12:07:55;;;;;;;12.90;8.00;;;14.90;99.90;;;;;;4989575;28;20603;-73
2022/01/05 12:10:23;;;;;;;15.23;8.53;;;14.90;99.90;;;;;;4988708;28;20670;-73
2022/01/05 12:13:05;;;;;;;10.10;8.47;;;14.90;99.90;;;;;;4975855;28;20782;-70
2022/01/05 12:16:05;;;;;;;12.77;8.47;;;14.80;99.90;;;;;;4994813;28;20456;-70
2022/01/05 12:18:38;;;;;;;13.33;8.47;;;14.90;99.90;;;;;;5005861;28;20471;-72
2022/01/05 12:21:46;;;;;;;11.97;9.50;;;14.90;99.90;;;;;;4989204;28;20443;-70
2022/01/05 12:24:51;;;;;;;11.93;7.80;;;14.90;99.90;;;;;;4983689;28;20456;-70
2022/01/05 12:27:35;;;;;;;11.70;9.17;;;15.00;99.90;;;;;;5013369;28;20513;-72
2022/01/05 12:30:23;;;;;;;10.73;8.80;;;15.00;99.90;;;;;;4981677;28;20508;-72
2022/01/05 12:33:10;;;;;;;12.10;8.33;;;15.10;99.90;;;;;;4982842;28;20547;-73
2022/01/05 12:35:46;;;;;;;10.60;8.27;;;15.10;99.90;;;;;;4992502;28;20494;-71
2022/01/05 12:38:35;;;;;;;12.47;7.90;;;15.10;99.90;;;;;;5004256;28;20456;-70
2022/01/05 12:41:26;;;;;;;11.03;8.27;;;15.10;99.90;;;;;;5007745;28;20435;-72
2022/01/05 12:43:56;;;;;;;10.80;8.40;;;15.10;99.90;;;;;;4998692;28;20484;-71
2022/01/05 12:46:46;;;;;;;9.90;7.10;;;15.10;99.90;;;;;;4989351;28;20487;-72
2022/01/05 12:49:26;;;;;;;11.03;8.20;;;15.00;99.90;;;;;;4982178;28;20438;-71
2022/01/05 12:52:14;;;;;;;10.47;8.17;;;15.00;99.90;;;;;;4999836;28;20436;-72
2022/01/05 12:55:04;;;;;;;10.37;7.97;;;15.00;99.90;;;;;;4983686;28;20473;-72
2022/01/05 12:57:37;;;;;;;10.73;8.47;;;15.00;99.90;;;;;;4983307;28;20465;-71
2022/01/05 13:00:07;;;;;;;10.43;6.90;;;15.10;99.90;;;;;;4982675;28;20441;-71
2022/01/05 13:02:45;;;;;;;9.83;7.90;;;15.10;99.90;;;;;;4983861;28;20600;-72
2022/01/05 13:05:33;;;;;;;12.23;8.40;;;15.20;99.90;;;;;;4977375;28;20452;-72
2022/01/05 13:08:08;;;;;;;8.60;7.40;;;15.30;99.90;;;;;;4990916;28;20452;-71
2022/01/05 13:10:43;;;;;;;10.13;8.23;;;15.30;99.90;;;;;;4992521;28;20506;-73
2022/01/05 13:13:16;;;;;;;17.60;10.23;;;15.30;99.90;;;;;;4993910;28;20824;-73
2022/01/05 13:16:11;;;;;;;11.73;10.17;;;15.30;99.90;;;;;;4991665;28;20894;-71
2022/01/05 13:18:39;;;;;;;11.20;9.73;;;15.30;99.90;;;;;;4988284;28;20507;-71
2022/01/05 13:21:40;;;;;;;15.60;13.00;;;15.40;99.90;;;;;;4996250;28;20407;-71